Time;durP1;ratioP1;P1;durP2;ratioP2;P2;SDS_P1;SDS_P2;PMS_P1;PMS_P2;Temp;Humidity;BMP_temperature;BMP_pressure;BME280_temperature;BME280_humidity;BME280_pressure;Samples;Min_cycle;Max_cycle;Signal;HPM_P1;HPM_P2
2023/01/12 00:01:53;;;;;;;10.57;2.60;;;10.80;82.00;;;13.22;58.49;100541.81;5016192;28;20195;-54
2023/01/12 00:04:20;;;;;;;6.60;2.30;;;10.80;82.00;;;13.13;58.52;100549.09;5016084;28;20218;-56
2023/01/12 00:06:47;;;;;;;5.97;2.57;;;10.80;81.80;;;13.23;58.21;100564.59;5015021;28;20214;-52
2023/01/12 00:09:14;;;;;;;5.17;2.50;;;10.80;81.80;;;13.29;58.03;100540.00;5015072;28;20222;-54
2023/01/12 00:11:41;;;;;;;7.07;2.20;;;10.80;81.60;;;13.40;57.60;100556.16;5015181;28;20191;-60
2023/01/12 00:14:08;;;;;;;6.87;2.30;;;10.80;81.50;;;13.41;57.49;100555.13;5016338;28;20560;-59
2023/01/12 00:16:36;;;;;;;4.93;2.13;;;10.90;81.50;;;13.45;57.48;100543.13;5015196;28;20266;-54
2023/01/12 00:19:11;;;;;;;5.67;2.17;;;10.90;81.30;;;13.51;57.23;100558.22;5014703;28;20222;-55
2023/01/12 00:21:49;;;;;;;10.40;2.27;;;10.90;81.30;;;13.44;57.27;100552.09;5016933;28;20183;-54
2023/01/12 00:24:18;;;;;;;8.07;2.50;;;10.90;81.20;;;13.39;57.29;100549.22;5033968;28;20262;-56
2023/01/12 00:26:47;;;;;;;8.13;2.30;;;11.00;81.10;;;13.44;57.24;100541.50;5033388;28;20753;-54
2023/01/12 00:29:14;;;;;;;8.83;2.60;;;11.00;81.00;;;13.47;57.34;100543.75;5034308;28;20214;-55
2023/01/12 00:31:41;;;;;;;6.23;2.33;;;11.00;81.00;;;13.50;57.05;100538.06;5015688;28;20283;-55
2023/01/12 00:34:09;;;;;;;8.37;2.40;;;10.90;81.00;;;13.53;56.82;100544.78;5026139;28;20245;-57
2023/01/12 00:36:37;;;;;;;9.30;2.53;;;10.90;81.10;;;13.51;57.05;100537.06;5032587;28;20186;-55
2023/01/12 00:39:05;;;;;;;5.50;2.77;;;10.90;81.10;;;13.52;57.00;100532.59;5034413;28;20304;-56
2023/01/12 00:47:05;;;;;;;6.13;1.70;;;10.90;81.30;;;13.47;57.23;100541.13;5032284;28;20215;-55
2023/01/12 00:49:34;;;;;;;7.80;2.57;;;10.90;81.30;;;13.36;57.56;100544.31;5034144;28;20662;-53
2023/01/12 00:52:01;;;;;;;5.07;2.00;;;10.80;81.50;;;13.25;58.08;100552.81;5033765;28;20201;-53
2023/01/12 00:54:28;;;;;;;5.67;2.40;;;10.90;81.70;;;13.32;58.12;100548.38;5019297;28;20195;-55
2023/01/12 00:56:56;;;;;;;5.47;2.07;;;10.90;81.80;;;13.39;58.08;100549.22;5030332;28;20190;-54
2023/01/12 00:59:24;;;;;;;5.97;2.40;;;10.90;82.00;;;13.47;58.02;100543.75;5034539;28;20754;-54
2023/01/12 01:01:50;;;;;;;7.37;2.23;;;10.90;82.00;;;13.57;57.71;100552.13;5034116;28;20187;-54
2023/01/12 01:04:18;;;;;;;7.13;2.17;;;10.90;82.20;;;13.61;57.54;100546.44;5022615;28;20245;-57
2023/01/12 01:06:46;;;;;;;6.53;2.40;;;10.90;82.10;;;13.49;57.95;100544.38;5017770;28;20219;-54
2023/01/12 01:09:13;;;;;;;4.47;2.40;;;10.90;82.00;;;13.48;57.78;100557.78;5018672;28;20227;-54
2023/01/12 01:11:40;;;;;;;5.43;1.90;;;11.00;82.00;;;13.56;57.78;100555.78;5018438;28;20187;-54
2023/01/12 01:14:08;;;;;;;6.63;2.23;;;11.00;82.00;;;13.63;57.48;100560.28;5018076;28;20206;-56
2023/01/12 01:16:35;;;;;;;7.73;2.83;;;11.00;82.10;;;13.67;57.57;100566.81;5017498;28;20187;-53
2023/01/12 01:19:04;;;;;;;7.63;2.87;;;11.00;82.20;;;13.60;57.56;100558.84;5028817;28;20214;-54
2023/01/12 01:21:32;;;;;;;6.93;2.53;;;11.00;82.20;;;13.63;57.60;100554.97;5037460;28;20612;-56
2023/01/12 01:24:01;;;;;;;5.27;2.50;;;11.00;82.10;;;13.66;57.44;100551.94;5037646;28;20202;-55
2023/01/12 01:26:29;;;;;;;7.17;3.03;;;11.00;81.90;;;13.70;57.45;100550.53;5037513;28;20233;-53
2023/01/12 01:28:57;;;;;;;6.07;2.10;;;11.00;81.90;;;13.73;57.45;100550.13;5036456;28;20230;-56
2023/01/12 01:31:25;;;;;;;6.30;2.07;;;11.00;81.90;;;13.74;57.23;100557.06;5018128;28;20191;-54
2023/01/12 01:33:53;;;;;;;4.90;1.83;;;11.10;81.80;;;13.43;57.35;100549.66;5017544;28;20226;-56
2023/01/12 01:36:20;;;;;;;3.67;1.70;;;11.00;81.00;;;13.42;57.48;100548.00;5018210;28;20625;-56
2023/01/12 01:38:49;;;;;;;3.67;1.50;;;11.00;80.60;;;13.48;57.17;100548.03;5017270;28;20226;-56
2023/01/12 01:41:21;;;;;;;2.93;1.50;;;11.00;80.70;;;13.55;57.07;100564.72;5017429;28;20656;-53
2023/01/12 01:43:55;;;;;;;3.60;1.33;;;11.00;80.80;;;13.62;56.77;100562.09;5017327;28;20191;-56
2023/01/12 01:46:37;;;;;;;3.83;1.70;;;11.00;80.70;;;13.56;57.05;100558.44;5015924;28;20218;-54
2023/01/12 01:49:27;;;;;;;2.83;1.27;;;11.00;80.90;;;13.50;56.75;100555.78;5016825;28;20229;-59
2023/01/12 01:52:01;;;;;;;5.70;1.43;;;11.00;80.80;;;13.48;56.89;100548.03;5018464;28;20655;-53
2023/01/12 01:54:36;;;;;;;3.03;1.37;;;10.90;80.90;;;13.46;57.14;100550.06;5031983;28;20200;-55
2023/01/12 01:57:07;;;;;;;2.50;0.97;;;10.90;81.10;;;13.43;57.22;100547.00;5037333;28;20186;-56
2023/01/12 01:59:38;;;;;;;3.10;1.30;;;10.90;81.20;;;13.39;57.31;100541.28;5036816;28;20179;-54
2023/01/12 02:02:06;;;;;;;3.80;1.03;;;10.80;81.30;;;13.37;57.39;100545.97;5036793;28;20529;-55
2023/01/12 02:04:34;;;;;;;1.87;0.90;;;10.80;81.20;;;13.34;57.39;100554.28;5035402;28;20194;-54
2023/01/12 02:07:05;;;;;;;3.90;0.97;;;10.80;81.40;;;13.29;57.44;100540.00;5036546;28;20305;-54
2023/01/12 02:09:32;;;;;;;2.37;1.27;;;10.70;81.50;;;13.27;57.34;100534.94;5025614;28;20723;-55
2023/01/12 02:17:55;;;;;;;4.60;1.30;;;10.60;82.10;;;13.07;58.01;100528.75;5037026;28;20215;-56
2023/01/12 02:21:02;;;;;;;5.37;1.33;;;10.60;82.40;;;12.96;58.30;100523.97;5036681;28;20183;-56
2023/01/12 02:24:06;;;;;;;6.13;1.70;;;10.50;82.70;;;12.99;58.60;100520.94;5036598;28;20261;-55
2023/01/12 02:27:24;;;;;;;5.23;1.73;;;10.50;83.00;;;12.93;58.85;100511.16;5027276;28;20582;-56
2023/01/12 02:30:27;;;;;;;3.23;1.27;;;10.40;83.20;;;12.96;58.75;100520.50;5034280;28;20210;-55
2023/01/12 02:33:13;;;;;;;5.40;1.80;;;10.40;83.30;;;12.96;58.88;100510.75;5036472;28;20618;-54
2023/01/12 02:35:52;;;;;;;4.60;2.00;;;10.40;83.60;;;12.99;58.70;100512.19;5034606;28;20191;-54
2023/01/12 02:38:32;;;;;;;5.50;2.23;;;10.40;83.80;;;12.99;58.88;100515.66;5036061;28;20215;-53
2023/01/12 02:41:15;;;;;;;4.60;2.23;;;10.40;84.10;;;12.96;59.78;100510.75;5036493;28;20183;-55
2023/01/12 02:43:43;;;;;;;3.63;2.37;;;10.30;84.40;;;12.96;59.66;100515.22;5036296;28;20175;-53
2023/01/12 02:46:18;;;;;;;9.13;3.00;;;10.40;84.50;;;13.00;59.67;100506.72;5035551;28;20237;-55
2023/01/12 02:48:54;;;;;;;8.53;2.87;;;10.30;84.80;;;13.00;60.12;100490.88;5033104;28;20272;-53
2023/01/12 02:51:30;;;;;;;7.13;2.63;;;10.40;85.50;;;13.05;59.98;100493.72;5016050;28;20285;-54
2023/01/12 02:54:03;;;;;;;10.13;2.93;;;10.40;85.10;;;13.02;60.17;100483.56;5016021;28;20203;-54
2023/01/12 02:56:36;;;;;;;9.77;2.83;;;10.40;85.40;;;13.01;60.29;100476.66;5028122;28;20274;-53
2023/01/12 02:59:12;;;;;;;9.30;3.10;;;10.40;85.30;;;13.00;60.27;100475.03;5035849;28;20210;-54
2023/01/12 03:01:42;;;;;;;6.40;2.60;;;10.40;85.60;;;12.95;60.62;100469.50;5035861;28;20566;-55
2023/01/12 03:04:12;;;;;;;5.20;2.53;;;10.40;85.60;;;12.92;60.72;100475.19;5035867;28;20241;-55
2023/01/12 03:06:44;;;;;;;6.73;2.33;;;10.40;85.60;;;12.90;60.85;100467.47;5020455;28;20660;-54
2023/01/12 03:09:15;;;;;;;5.37;2.40;;;10.40;85.80;;;12.90;60.99;100464.81;5015535;28;20234;-53
2023/01/12 03:11:47;;;;;;;6.83;2.73;;;10.50;85.80;;;12.97;60.64;100470.13;5028801;28;20212;-53
2023/01/12 03:14:16;;;;;;;4.90;2.30;;;10.50;85.70;;;13.04;60.78;100465.69;5035385;28;20197;-54
2023/01/12 03:16:43;;;;;;;4.53;2.30;;;10.50;85.70;;;13.10;60.34;100462.28;5034987;28;20226;-56
2023/01/12 03:19:17;;;;;;;4.67;2.13;;;10.50;85.60;;;13.13;60.28;100464.53;5035551;28;20214;-54
2023/01/12 03:21:51;;;;;;;4.30;2.00;;;10.50;85.60;;;13.15;60.23;100461.69;5030702;28;20628;-61
2023/01/12 03:24:25;;;;;;;6.27;2.57;;;10.50;85.50;;;13.14;60.07;100454.78;5014317;28;20205;-54
2023/01/12 03:27:03;;;;;;;3.67;2.10;;;10.50;85.50;;;13.07;60.41;100449.47;5015054;28;20659;-53
2023/01/12 03:29:36;;;;;;;4.70;1.83;;;10.50;85.50;;;13.10;60.37;100453.56;5015434;28;20183;-56
2023/01/12 03:32:05;;;;;;;3.30;2.00;;;10.60;85.40;;;13.15;60.34;100449.28;5015000;28;20206;-57
2023/01/12 03:34:35;;;;;;;5.60;2.07;;;10.60;85.40;;;13.19;60.30;100453.16;5013867;28;20190;-54
2023/01/12 03:37:11;;;;;;;4.37;1.97;;;10.60;85.50;;;13.17;60.42;100444.63;5015686;28;20270;-53
2023/01/12 03:39:49;;;;;;;5.83;1.90;;;10.60;85.60;;;13.13;60.62;100448.69;5015385;28;20644;-55
2023/01/12 03:42:25;;;;;;;8.47;2.40;;;10.70;85.60;;;13.11;60.70;100442.78;5015397;28;20187;-54
2023/01/12 03:45:08;;;;;;;4.27;2.40;;;10.70;85.70;;;13.10;60.92;100449.06;5015239;28;20213;-56
2023/01/12 03:47:40;;;;;;;3.60;2.17;;;10.70;85.70;;;13.09;61.27;100452.75;5015179;28;20219;-56
2023/01/12 03:50:15;;;;;;;4.43;2.17;;;10.70;85.80;;;13.16;60.89;100453.56;5027300;28;20202;-54
2023/01/12 03:52:44;;;;;;;5.80;2.40;;;10.70;85.70;;;13.09;61.69;100446.63;5034647;28;20190;-55
2023/01/12 03:55:16;;;;;;;5.27;2.00;;;10.70;86.40;;;13.08;61.99;100445.81;5015157;28;20195;-56
2023/01/12 03:57:45;;;;;;;2.00;1.80;;;10.70;86.80;;;13.12;61.93;100447.03;5049841;28;20269;-54
2023/01/12 04:00:15;;;;;;;3.77;1.97;;;10.70;86.60;;;13.16;62.00;100436.91;5034812;28;20278;-54
2023/01/12 04:02:43;;;;;;;4.17;2.47;;;10.70;87.20;;;13.08;62.64;100435.25;5030848;28;20210;-55
2023/01/12 04:05:13;;;;;;;4.47;2.03;;;10.70;87.50;;;13.06;62.67;100431.16;5016360;28;20225;-56
2023/01/12 04:07:40;;;;;;;4.73;2.20;;;10.70;87.70;;;13.00;63.17;100421.38;5027842;28;20215;-56
2023/01/12 04:10:08;;;;;;;3.07;1.70;;;10.70;87.80;;;13.06;62.87;100418.78;5018895;28;20275;-53
2023/01/12 04:12:35;;;;;;;4.13;2.10;;;10.70;87.80;;;13.13;62.97;100416.16;5014435;28;20257;-54
2023/01/12 04:15:02;;;;;;;3.90;2.20;;;10.70;88.00;;;12.98;63.34;100408.34;5014214;28;20207;-54
2023/01/12 04:17:29;;;;;;;5.00;2.33;;;10.60;88.50;;;12.90;63.95;100400.59;5014978;28;20253;-54
2023/01/12 04:19:56;;;;;;;5.43;2.17;;;10.60;88.90;;;12.84;64.28;100409.31;5032609;28;20202;-53
2023/01/12 04:22:42;;;;;;;7.60;2.53;;;10.60;89.10;;;12.89;64.18;100394.50;5034466;28;20205;-56
2023/01/12 04:25:11;;;;;;;6.77;2.33;;;10.60;89.10;;;12.80;64.71;100393.06;5033456;28;20191;-55
2023/01/12 04:27:44;;;;;;;7.10;2.27;;;10.60;89.60;;;12.84;64.53;100396.91;5034508;28;20320;-57
2023/01/12 04:30:12;;;;;;;4.93;2.27;;;10.60;89.60;;;12.85;64.71;100384.53;5032363;28;20583;-54
2023/01/12 04:32:41;;;;;;;8.20;2.90;;;10.60;89.50;;;12.77;65.03;100384.69;5020330;28;20248;-53
2023/01/12 04:35:11;;;;;;;5.97;2.30;;;10.60;89.80;;;12.71;65.18;100369.66;5032349;28;20195;-56
2023/01/12 04:37:39;;;;;;;7.03;2.43;;;10.60;89.90;;;12.78;65.26;100378.41;5033186;28;20213;-55
2023/01/12 04:40:09;;;;;;;7.17;2.23;;;10.60;90.00;;;12.80;65.19;100371.09;5034072;28;20245;-56
2023/01/12 04:45:22;;;;;;;7.27;2.30;;;10.50;90.30;;;12.55;66.77;100354.16;5017882;28;20207;-53
2023/01/12 04:47:49;;;;;;;4.30;2.27;;;10.50;90.40;;;12.63;66.39;100356.59;5013535;28;20218;-53
2023/01/12 04:50:16;;;;;;;4.10;2.30;;;10.50;90.50;;;12.66;66.41;100354.41;5014339;28;20195;-55
2023/01/12 04:52:44;;;;;;;4.57;2.27;;;10.50;90.60;;;12.53;66.74;100342.97;5013638;28;20242;-53
2023/01/12 04:55:11;;;;;;;4.33;2.00;;;10.50;90.80;;;12.58;67.02;100349.28;5015273;28;20197;-52
2023/01/12 04:57:38;;;;;;;7.13;2.73;;;10.40;90.70;;;12.68;66.63;100333.06;5032759;28;20220;-56
2023/01/12 05:00:07;;;;;;;5.50;2.73;;;10.50;90.80;;;12.69;66.31;100330.22;5033640;28;20562;-54
2023/01/12 05:02:34;;;;;;;5.27;1.80;;;10.40;90.80;;;12.73;66.41;100325.38;5033582;28;20248;-55
2023/01/12 05:05:04;;;;;;;4.77;2.47;;;10.50;90.90;;;12.73;66.43;100330.66;5033230;28;20198;-53
2023/01/12 05:07:31;;;;;;;6.87;1.93;;;10.50;90.90;;;12.80;66.23;100318.28;5033070;28;20582;-54
2023/01/12 05:12:44;;;;;;;4.57;2.13;;;10.50;91.00;;;12.86;66.27;100314.84;5033069;28;20236;-58
2023/01/12 05:15:11;;;;;;;9.00;2.50;;;10.50;91.00;;;12.93;66.09;100299.84;5023179;28;20558;-58
2023/01/12 05:17:38;;;;;;;4.07;2.00;;;10.50;90.90;;;13.02;65.59;100311.84;5013998;28;20301;-53
2023/01/12 05:20:07;;;;;;;3.67;2.13;;;10.50;90.90;;;12.93;66.16;100295.34;5013831;28;20245;-54
2023/01/12 05:22:34;;;;;;;4.97;2.20;;;10.60;91.10;;;12.95;66.23;100292.53;5013337;28;20191;-57
2023/01/12 05:25:03;;;;;;;3.80;2.10;;;10.60;91.10;;;12.92;66.27;100292.91;5015727;28;20204;-55
2023/01/12 05:27:30;;;;;;;5.40;2.37;;;10.60;91.10;;;12.81;66.68;100288.22;5032997;28;20234;-53
2023/01/12 05:29:58;;;;;;;6.17;2.37;;;10.50;91.10;;;12.74;66.92;100282.13;5033296;28;20197;-56
2023/01/12 05:32:25;;;;;;;3.63;1.93;;;10.50;91.20;;;12.80;67.02;100278.66;5033695;28;20268;-55
2023/01/12 05:34:52;;;;;;;5.67;2.60;;;10.60;91.20;;;12.77;66.81;100268.50;5033848;28;20200;-57
2023/01/12 05:37:19;;;;;;;5.17;1.97;;;10.50;91.10;;;12.78;66.92;100260.41;5033827;28;20210;-56
2023/01/12 05:39:46;;;;;;;4.93;2.30;;;10.60;91.20;;;12.78;66.90;100259.56;5022450;28;20695;-54
2023/01/12 05:44:59;;;;;;;3.90;2.10;;;10.60;91.20;;;12.87;66.52;100250.44;5013057;28;20565;-56
2023/01/12 05:47:27;;;;;;;7.00;1.60;;;10.60;91.10;;;12.92;66.25;100234.81;5013524;28;20229;-55
2023/01/12 05:49:54;;;;;;;3.43;2.07;;;10.60;91.10;;;12.96;66.33;100225.44;5016766;28;20187;-54
2023/01/12 05:52:21;;;;;;;5.33;1.70;;;10.60;91.00;;;13.00;66.26;100224.06;5018150;28;20202;-53
2023/01/12 05:54:48;;;;;;;1.97;1.37;;;10.60;91.00;;;12.96;66.25;100216.72;5018761;28;20210;-54
2023/01/12 05:57:16;;;;;;;2.90;1.40;;;10.70;91.10;;;12.96;66.30;100212.25;5035434;28;20217;-54
2023/01/12 05:59:43;;;;;;;2.90;1.30;;;10.70;91.40;;;12.96;66.35;100220.16;5036868;28;20198;-55
2023/01/12 06:02:12;;;;;;;3.50;1.80;;;10.70;90.90;;;12.97;66.51;100210.41;5036763;28;20654;-57
2023/01/12 06:04:39;;;;;;;3.73;1.50;;;10.70;91.00;;;13.02;66.08;100200.06;5036207;28;20194;-55
2023/01/12 06:07:06;;;;;;;3.80;1.77;;;10.70;91.00;;;13.02;66.37;100202.72;5036176;28;20210;-57
2023/01/12 06:09:33;;;;;;;2.73;2.10;;;10.70;91.00;;;13.07;66.14;100200.31;5036766;28;20193;-55
2023/01/12 06:14:47;;;;;;;3.23;1.50;;;10.70;91.00;;;12.94;66.64;100185.22;5016734;28;20195;-55
2023/01/12 06:17:14;;;;;;;3.50;1.90;;;10.70;91.00;;;12.88;66.71;100170.19;5017333;28;20187;-54
2023/01/12 06:19:41;;;;;;;2.83;1.83;;;10.70;91.10;;;12.84;66.71;100168.97;5033057;28;20191;-54
2023/01/12 06:22:09;;;;;;;2.80;1.67;;;10.70;91.10;;;12.80;66.86;100162.47;5037522;28;20312;-54
2023/01/12 06:24:36;;;;;;;3.40;1.77;;;10.60;91.10;;;12.71;67.27;100158.41;5036127;28;20186;-57
2023/01/12 06:27:03;;;;;;;4.67;1.70;;;10.60;91.10;;;12.70;67.01;100152.31;5036031;28;20214;-56
2023/01/12 06:29:30;;;;;;;5.60;1.83;;;10.60;91.20;;;12.63;67.49;100145.41;5036009;28;20194;-54
2023/01/12 06:31:58;;;;;;;5.97;2.20;;;10.50;91.10;;;12.60;67.56;100129.97;5034783;28;20647;-55
2023/01/12 06:34:25;;;;;;;4.33;1.73;;;10.60;91.30;;;12.59;67.53;100131.81;5015816;28;20195;-55
2023/01/12 06:36:52;;;;;;;8.83;2.53;;;10.50;91.30;;;12.64;67.59;100123.28;5016934;28;20191;-57
2023/01/12 06:39:25;;;;;;;5.50;2.07;;;10.50;91.40;;;12.54;67.97;100117.56;5000156;28;20202;-55
2023/01/12 06:44:40;;;;;;;4.63;2.40;;;10.50;91.30;;;12.70;67.50;100104.78;5015739;28;20199;-58
2023/01/12 06:47:08;;;;;;;5.80;2.50;;;10.50;91.40;;;12.68;67.73;100113.91;5028697;28;20285;-55
2023/01/12 06:49:35;;;;;;;4.23;2.17;;;10.50;91.50;;;12.64;67.70;100110.06;5036135;28;20216;-55
2023/01/12 06:52:02;;;;;;;6.43;2.53;;;10.50;91.50;;;12.63;68.04;100103.16;5036582;28;20195;-53
2023/01/12 06:54:29;;;;;;;6.47;3.23;;;10.50;91.70;;;12.66;67.86;100100.13;5020979;28;20191;-55
2023/01/12 06:56:56;;;;;;;5.30;2.80;;;10.50;91.70;;;12.63;68.26;100088.13;5032347;28;20203;-54
2023/01/12 06:59:23;;;;;;;6.27;2.70;;;10.50;91.80;;;12.61;68.81;100084.06;5035410;28;20226;-56
2023/01/12 07:01:51;;;;;;;2.97;2.33;;;10.50;92.00;;;12.56;68.18;100062.75;5036019;28;20203;-54
2023/01/12 07:04:20;;;;;;;2.70;2.27;;;10.40;91.80;;;12.42;68.29;100038.19;5036280;28;20191;-55
2023/01/12 07:06:47;;;;;;;5.13;2.30;;;10.40;92.10;;;12.37;68.37;100039.81;5032426;28;20648;-55
2023/01/12 07:09:14;;;;;;;4.27;2.10;;;10.40;91.70;;;12.31;68.48;100030.06;5015115;28;20227;-58
2023/01/12 07:11:41;;;;;;;5.27;1.93;;;10.30;91.70;;;12.20;68.59;100021.75;5016092;28;20283;-54
2023/01/12 07:14:08;;;;;;;4.77;2.07;;;10.30;91.60;;;12.30;68.22;100023.16;5024845;28;20301;-54
2023/01/12 07:16:35;;;;;;;5.67;2.20;;;10.20;91.50;;;12.35;68.15;100016.28;5035252;28;20195;-56
2023/01/12 07:19:02;;;;;;;4.27;2.17;;;10.30;91.60;;;12.33;67.87;100001.66;5036348;28;20699;-56
2023/01/12 07:21:30;;;;;;;2.57;1.70;;;10.20;91.50;;;12.33;68.14;100006.94;5036082;28;20249;-55
2023/01/12 07:23:57;;;;;;;2.47;1.73;;;10.20;91.60;;;12.34;68.10;100000.66;5035189;28;20221;-54
2023/01/12 07:26:24;;;;;;;3.20;2.03;;;10.20;91.70;;;12.35;67.93;100004.91;5036165;28;20187;-53
2023/01/12 07:28:51;;;;;;;5.23;1.90;;;10.20;91.70;;;12.22;68.47;100006.53;5016898;28;20218;-57
2023/01/12 07:31:18;;;;;;;5.53;1.77;;;10.20;91.80;;;11.98;68.98;100009.75;5015216;28;20687;-54
2023/01/12 07:33:45;;;;;;;2.37;1.30;;;10.10;91.80;;;11.96;69.35;100014.41;5015371;28;20293;-55
2023/01/12 07:36:12;;;;;;;1.87;1.07;;;10.10;91.70;;;11.90;69.09;100024.97;5014331;28;20648;-55
2023/01/12 07:38:42;;;;;;;6.43;4.30;;;10.00;91.70;;;11.90;69.52;99988.88;5016140;28;20771;-54
2023/01/12 07:42:22;;;;;;;6.67;1.50;;;10.00;91.80;;;11.91;69.43;99998.38;5025839;28;20313;-56
2023/01/12 07:43:57;;;;;;;3.07;1.47;;;10.00;92.00;;;11.83;70.58;100001.22;5039941;28;20216;-58
2023/01/12 07:46:25;;;;;;;2.80;1.40;;;10.00;92.20;;;11.98;70.17;100020.31;5042183;28;20181;-57
2023/01/12 07:48:51;;;;;;;1.90;1.07;;;10.00;92.30;;;12.05;69.51;100007.94;5041173;28;20214;-56
2023/01/12 07:51:18;;;;;;;5.83;1.87;;;10.00;92.30;;;12.27;69.18;100013.00;5042422;28;20190;-57
2023/01/12 07:53:48;;;;;;;3.67;1.50;;;10.00;92.30;;;12.32;68.61;99994.75;5032140;28;20258;-57
2023/01/12 07:56:18;;;;;;;1.53;1.30;;;10.00;92.50;;;12.35;68.88;99981.97;5031544;28;20208;-58
2023/01/12 07:58:47;;;;;;;3.03;1.40;;;10.00;92.50;;;12.31;69.00;99995.78;5040810;28;20237;-58
2023/01/12 08:01:15;;;;;;;1.87;1.00;;;10.00;92.50;;;12.27;69.28;99976.88;5037654;28;20713;-56
2023/01/12 08:03:42;;;;;;;3.63;1.40;;;10.00;92.60;;;12.22;69.50;99997.78;5025914;28;20341;-51
2023/01/12 08:06:09;;;;;;;2.53;1.30;;;10.10;92.60;;;12.22;69.86;99984.59;5014524;28;20245;-56
2023/01/12 08:08:36;;;;;;;2.07;1.20;;;10.00;92.70;;;12.24;69.64;99977.31;5020241;28;20676;-55
2023/01/12 08:11:09;;;;;;;1.27;1.00;;;10.10;92.80;;;12.13;70.09;99981.38;5034988;28;20182;-55
2023/01/12 08:13:37;;;;;;;1.80;1.20;;;10.10;92.80;;;12.21;70.23;99981.16;5035471;28;20194;-56
2023/01/12 08:16:14;;;;;;;1.57;1.23;;;10.10;92.90;;;12.24;70.15;99980.75;5034657;28;20195;-55
2023/01/12 08:18:48;;;;;;;3.37;1.10;;;10.10;92.80;;;12.31;69.95;99977.31;5034845;28;20214;-54
2023/01/12 08:21:22;;;;;;;3.33;1.33;;;10.10;92.90;;;12.35;69.88;99989.88;5035094;28;20170;-56
2023/01/12 08:23:55;;;;;;;1.53;1.20;;;10.20;93.00;;;12.40;69.72;99986.63;5034210;28;20205;-57
2023/01/12 08:26:32;;;;;;;1.70;1.23;;;10.20;92.90;;;12.51;69.86;99989.44;5034677;28;20214;-56
2023/01/12 08:29:07;;;;;;;1.20;1.10;;;10.30;93.00;;;12.53;69.67;99978.69;5035445;28;20218;-56
2023/01/12 08:31:36;;;;;;;1.77;1.00;;;10.30;93.00;;;12.65;69.55;99984.94;5036236;28;20512;-55
2023/01/12 08:34:06;;;;;;;2.27;1.10;;;10.40;93.00;;;12.80;68.99;99988.19;5034851;28;20254;-55
2023/01/12 08:36:34;;;;;;;1.63;1.40;;;10.40;92.90;;;12.95;68.81;100006.44;5023834;28;20668;-56
2023/01/12 08:39:03;;;;;;;3.53;1.23;;;10.50;93.00;;;13.04;68.56;99992.78;5014466;28;20218;-55
2023/01/12 08:41:32;;;;;;;1.23;1.10;;;10.50;92.90;;;12.96;68.58;99979.78;5014960;28;20539;-58
2023/01/12 08:44:00;;;;;;;2.13;1.00;;;10.50;92.90;;;13.07;68.52;99989.75;5015107;28;20663;-57
2023/01/12 08:46:29;;;;;;;1.53;1.00;;;10.60;92.90;;;13.13;68.24;99980.97;5014064;28;20234;-53
2023/01/12 08:48:57;;;;;;;1.70;1.07;;;10.60;92.90;;;13.07;68.58;99988.94;5025831;28;20230;-54
2023/01/12 08:51:25;;;;;;;3.87;1.10;;;10.60;92.90;;;12.99;68.94;99971.47;5034107;28;20195;-56
2023/01/12 08:53:52;;;;;;;3.57;0.90;;;10.60;92.90;;;12.97;69.34;99994.63;5035288;28;20245;-56
2023/01/12 08:56:20;;;;;;;1.73;1.00;;;10.70;92.80;;;13.13;68.92;99973.06;5033828;28;20222;-58
2023/01/12 08:58:48;;;;;;;1.10;1.00;;;10.70;92.80;;;13.21;68.63;99975.47;5033902;28;20618;-55
2023/01/12 09:01:16;;;;;;;2.03;0.90;;;10.80;92.90;;;13.26;68.60;99973.00;5015228;28;20649;-55
2023/01/12 09:03:43;;;;;;;1.53;1.13;;;10.80;92.90;;;13.35;68.19;99969.09;5014929;28;20195;-55
2023/01/12 09:06:14;;;;;;;1.43;1.00;;;10.90;92.90;;;13.40;68.02;99974.56;5014296;28;20214;-57
2023/01/12 09:08:42;;;;;;;1.20;1.00;;;10.90;92.80;;;13.34;68.09;99964.81;5014252;28;20760;-56
2023/01/12 09:11:12;;;;;;;1.77;0.97;;;10.90;92.70;;;13.46;68.16;99975.53;5014765;28;20187;-56
2023/01/12 09:13:39;;;;;;;2.60;1.20;;;11.00;92.70;;;13.53;67.80;99971.03;5013969;28;20187;-56
2023/01/12 09:16:12;;;;;;;1.27;1.10;;;11.00;92.70;;;13.61;67.74;99970.78;5013744;28;20298;-54
2023/01/12 09:18:40;;;;;;;1.87;1.23;;;11.10;92.70;;;13.74;67.49;99983.13;5015753;28;20299;-57
2023/01/12 09:21:09;;;;;;;3.43;1.13;;;11.10;92.70;;;13.77;67.26;99980.03;5034073;28;20274;-57
2023/01/12 09:23:38;;;;;;;1.23;0.83;;;11.10;92.70;;;13.83;67.42;99971.25;5035156;28;20277;-52
2023/01/12 09:26:08;;;;;;;3.13;1.00;;;11.20;92.60;;;13.72;67.42;99979.84;5037244;28;20190;-54
2023/01/12 09:28:36;;;;;;;0.97;0.87;;;11.20;92.60;;;13.69;67.61;99983.75;5037015;28;20218;-56
2023/01/12 09:31:05;;;;;;;0.70;0.70;;;11.30;92.50;;;13.77;67.47;99994.06;5036976;28;20196;-55
2023/01/12 09:33:35;;;;;;;1.13;1.00;;;11.30;92.50;;;13.88;67.42;99982.78;5037311;28;20186;-55
2023/01/12 09:36:05;;;;;;;3.30;1.00;;;11.30;92.50;;;13.96;67.28;99990.47;5025913;28;20624;-55
2023/01/12 09:38:36;;;;;;;0.77;0.63;;;11.30;92.50;;;14.08;67.05;99998.53;5017488;28;20219;-54
2023/01/12 09:41:10;;;;;;;1.60;0.77;;;11.40;92.50;;;14.06;66.57;99990.00;5017515;28;20215;-55
2023/01/12 09:49:25;;;;;;;1.07;0.70;;;11.50;92.30;;;14.09;67.05;100002.81;5035938;28;20240;-56
2023/01/12 09:52:01;;;;;;;2.17;1.10;;;11.60;92.30;;;14.15;66.86;100002.75;5027312;28;20248;-55
2023/01/12 09:54:33;;;;;;;0.97;0.80;;;11.60;92.30;;;14.22;66.72;100023.84;5016107;28;20602;-56
2023/01/12 09:57:11;;;;;;;1.07;0.63;;;11.70;92.30;;;14.21;66.22;100014.31;5018655;28;20290;-55
2023/01/12 10:00:02;;;;;;;3.57;1.00;;;11.70;92.20;;;14.12;66.79;100000.53;5016916;28;20195;-56
2023/01/12 10:02:34;;;;;;;0.87;0.70;;;11.70;92.20;;;14.18;66.88;100014.75;5016677;28;20215;-55
2023/01/12 10:05:12;;;;;;;1.10;1.00;;;11.70;92.20;;;14.24;66.64;100008.56;5016930;28;20241;-57
2023/01/12 10:07:39;;;;;;;2.67;0.90;;;11.80;92.10;;;14.24;66.62;100025.25;5019908;28;20219;-54
2023/01/12 10:10:13;;;;;;;1.17;0.70;;;11.80;92.10;;;14.37;66.41;100016.44;5017662;28;20634;-57
2023/01/12 10:12:48;;;;;;;2.13;0.87;;;11.80;92.10;;;14.46;66.11;100023.09;5026163;28;20560;-54
2023/01/12 10:15:32;;;;;;;2.20;1.10;;;11.80;92.20;;;14.51;66.10;100025.91;5034479;28;20187;-57
2023/01/12 10:18:07;;;;;;;1.40;0.70;;;11.90;92.20;;;14.57;66.17;100022.38;5023235;28;20265;-54
2023/01/12 10:20:39;;;;;;;1.10;0.80;;;11.90;92.10;;;14.55;66.17;100029.72;5035919;28;20177;-54
2023/01/12 10:23:17;;;;;;;1.10;0.90;;;12.00;92.10;;;14.57;66.27;100032.94;5023599;28;20259;-56
2023/01/12 10:25:47;;;;;;;1.03;1.00;;;12.00;92.10;;;14.56;66.33;100034.00;5015873;28;20268;-55
2023/01/12 10:28:22;;;;;;;0.83;0.83;;;12.00;92.10;;;14.60;66.24;100035.19;5020478;28;20626;-57
2023/01/12 10:30:50;;;;;;;0.73;0.70;;;12.10;92.10;;;14.57;66.40;100046.19;5019263;28;20214;-58
2023/01/12 10:33:22;;;;;;;0.70;0.67;;;12.10;92.10;;;14.58;66.39;100042.53;5020292;28;20222;-54
2023/01/12 10:35:57;;;;;;;1.13;0.70;;;12.10;92.10;;;14.64;66.46;100031.06;5016647;28;20229;-55
2023/01/12 10:38:30;;;;;;;0.97;0.70;;;12.10;92.10;;;14.69;66.29;100039.16;5024661;28;20293;-56
2023/01/12 10:41:16;;;;;;;1.03;0.93;;;12.10;92.10;;;14.73;66.04;100042.19;5024716;28;20194;-61
2023/01/12 10:43:46;;;;;;;2.20;1.00;;;12.20;92.10;;;14.70;66.07;100039.97;5018382;28;20194;-55
2023/01/12 10:46:15;;;;;;;0.70;0.70;;;12.20;92.00;;;14.75;65.99;100048.91;5029842;28;20229;-55
2023/01/12 10:48:45;;;;;;;0.90;0.77;;;12.20;92.00;;;14.83;66.12;100053.91;5032946;28;20255;-56
2023/01/12 10:51:26;;;;;;;1.50;0.83;;;12.20;92.00;;;14.91;65.61;100043.03;5027222;28;20210;-54
2023/01/12 10:54:00;;;;;;;1.50;1.40;;;12.30;92.10;;;14.98;65.58;100035.00;5024980;28;20199;-54
2023/01/12 10:56:38;;;;;;;1.13;0.77;;;12.30;92.00;;;14.91;65.37;100027.13;5033215;28;20210;-54
2023/01/12 10:59:18;;;;;;;0.63;0.60;;;12.30;91.80;;;14.96;65.48;100033.59;5035455;28;20675;-57